createdAt,value
2023-12-08T00:01:45.134Z,76.27
2023-12-08T00:04:30.612Z,76.10
2023-12-08T00:07:16.042Z,76.08
2023-12-08T00:10:01.503Z,76.24
2023-12-08T00:12:47.152Z,75.71
2023-12-08T00:15:32.648Z,76.19
2023-12-08T00:18:18.385Z,76.28
2023-12-08T00:21:04.156Z,76.22
2023-12-08T00:23:50.388Z,75.93
2023-12-08T00:26:36.068Z,76.15
2023-12-08T00:29:21.605Z,76.21
2023-12-08T00:32:07.218Z,76.67
2023-12-08T00:34:52.849Z,76.21
2023-12-08T00:37:38.330Z,76.45
2023-12-08T00:40:23.948Z,76.42
2023-12-08T00:43:09.485Z,76.42
2023-12-08T00:45:55.042Z,76.78
2023-12-08T00:48:40.388Z,76.40
2023-12-08T00:51:26.534Z,76.47
2023-12-08T00:54:12.501Z,76.21
2023-12-08T00:56:58.051Z,76.82
2023-12-08T00:59:43.709Z,76.63
2023-12-08T01:02:29.145Z,76.11
2023-12-08T01:05:14.704Z,76.57
2023-12-08T01:08:00.580Z,75.99
2023-12-08T01:10:46.283Z,76.28
2023-12-08T01:13:31.803Z,75.80
2023-12-08T01:16:17.327Z,76.21
2023-12-08T01:19:02.969Z,76.00
2023-12-08T01:21:49.075Z,76.08
2023-12-08T01:24:36.657Z,75.89
2023-12-08T01:27:23.358Z,76.14
2023-12-08T01:30:09.934Z,76.46
2023-12-08T01:32:57.238Z,76.31
2023-12-08T01:35:43.267Z,75.95
2023-12-08T01:38:29.813Z,76.25
2023-12-08T01:41:16.729Z,76.11
2023-12-08T01:44:02.359Z,76.06
2023-12-08T01:46:48.142Z,76.03
2023-12-08T01:49:35.392Z,76.26
2023-12-08T01:52:24.671Z,76.65
2023-12-08T01:55:11.369Z,76.05
2023-12-08T01:57:56.861Z,75.84
2023-12-08T02:00:46.713Z,75.96
2023-12-08T02:03:36.698Z,75.55
2023-12-08T02:06:22.438Z,76.26
2023-12-08T02:09:09.276Z,75.98
2023-12-08T02:11:58.237Z,75.54
2023-12-08T02:14:46.290Z,76.38
2023-12-08T02:17:36.552Z,76.21
2023-12-08T02:20:22.496Z,75.94
2023-12-08T02:23:08.449Z,76.04
2023-12-08T02:25:54.203Z,75.72
2023-12-08T02:28:39.658Z,76.38
2023-12-08T02:31:42.200Z,75.99
2023-12-08T02:34:29.721Z,75.58
2023-12-08T02:37:16.348Z,75.57
2023-12-08T02:40:03.824Z,76.25
2023-12-08T02:42:49.817Z,75.95
2023-12-08T02:45:35.335Z,75.99
2023-12-08T02:48:21.093Z,76.08
2023-12-08T02:51:07.763Z,76.15
2023-12-08T02:53:54.051Z,75.88
2023-12-08T02:56:39.442Z,75.99
2023-12-08T02:59:24.930Z,75.77
2023-12-08T03:02:10.424Z,76.21
2023-12-08T03:04:56.073Z,75.56
2023-12-08T03:07:41.470Z,75.82
2023-12-08T03:10:27.208Z,76.28
2023-12-08T03:13:12.705Z,75.45
2023-12-08T03:15:58.361Z,76.28
2023-12-08T03:18:43.972Z,75.81
2023-12-08T03:21:29.848Z,75.66
2023-12-08T03:24:15.446Z,75.79
2023-12-08T03:27:01.201Z,76.01
2023-12-08T03:29:47.420Z,75.86
2023-12-08T03:32:33.733Z,76.24
2023-12-08T03:35:21.683Z,76.14
2023-12-08T03:38:07.448Z,75.81
2023-12-08T03:40:53.083Z,75.69
2023-12-08T03:43:38.818Z,75.85
2023-12-08T03:46:24.546Z,76.58
2023-12-08T03:49:10.588Z,76.20
2023-12-08T03:51:58.913Z,76.50
2023-12-08T03:54:44.678Z,76.52
2023-12-08T03:57:29.984Z,76.34
2023-12-08T04:00:16.195Z,76.48
2023-12-08T04:03:02.101Z,76.39
2023-12-08T04:05:47.879Z,76.40
2023-12-08T04:08:33.255Z,76.20
2023-12-08T04:11:18.694Z,76.65
2023-12-08T04:14:04.054Z,76.47
2023-12-08T04:16:52.114Z,76.54
2023-12-08T04:19:38.446Z,76.43
2023-12-08T04:22:24.183Z,76.70
2023-12-08T04:25:09.719Z,76.31
2023-12-08T04:27:55.367Z,76.40
2023-12-08T04:30:40.839Z,76.37
2023-12-08T04:33:26.505Z,76.70
2023-12-08T04:36:11.809Z,76.44
2023-12-08T04:38:57.370Z,76.56
2023-12-08T04:41:45.029Z,76.50
2023-12-08T04:44:31.683Z,76.46
2023-12-08T04:47:17.131Z,76.45
2023-12-08T04:50:03.450Z,76.50
2023-12-08T04:52:48.882Z,76.48
2023-12-08T04:55:36.376Z,76.21
2023-12-08T04:58:22.334Z,75.95
2023-12-08T05:01:13.285Z,76.39
2023-12-08T05:03:59.184Z,76.53
2023-12-08T05:06:45.217Z,76.02
2023-12-08T05:09:31.367Z,76.43
2023-12-08T05:12:16.968Z,75.78
2023-12-08T05:15:02.469Z,75.57
2023-12-08T05:17:48.140Z,76.09
2023-12-08T05:20:34.434Z,75.66
2023-12-08T05:23:20.190Z,76.51
2023-12-08T05:26:06.594Z,75.92
2023-12-08T05:28:52.499Z,75.60
2023-12-08T05:31:38.394Z,75.80
2023-12-08T05:34:24.182Z,75.94
2023-12-08T05:37:11.824Z,76.20
2023-12-08T05:39:57.376Z,76.11
2023-12-08T05:42:43.296Z,76.15
2023-12-08T05:45:28.770Z,76.47
2023-12-08T05:48:14.621Z,76.21
2023-12-08T05:51:00.473Z,76.59
2023-12-08T05:53:46.219Z,76.59
2023-12-08T05:56:32.625Z,76.63
2023-12-08T05:59:18.187Z,76.33
2023-12-08T06:02:04.013Z,76.68
2023-12-08T06:04:49.749Z,76.45
2023-12-08T06:07:36.116Z,76.37
2023-12-08T06:10:24.387Z,76.71
2023-12-08T06:13:10.027Z,76.84
2023-12-08T06:15:55.674Z,76.30
2023-12-08T06:18:41.689Z,76.17
2023-12-08T06:21:27.997Z,76.74
2023-12-08T06:24:14.058Z,76.68
2023-12-08T06:26:59.956Z,76.23
2023-12-08T06:29:45.784Z,76.95
2023-12-08T06:32:34.880Z,76.25
2023-12-08T06:35:20.739Z,76.76
2023-12-08T06:38:06.084Z,76.42
2023-12-08T06:40:52.202Z,76.28
2023-12-08T06:43:37.636Z,76.53
2023-12-08T06:46:23.097Z,76.41
2023-12-08T06:49:08.836Z,76.48
2023-12-08T06:51:54.581Z,76.47
2023-12-08T06:54:40.090Z,76.72
2023-12-08T06:57:26.635Z,76.52
2023-12-08T07:00:13.339Z,76.34
2023-12-08T07:02:58.920Z,76.25
2023-12-08T07:05:46.163Z,76.63
2023-12-08T07:08:32.729Z,76.49
2023-12-08T07:11:18.541Z,76.59
2023-12-08T07:14:04.042Z,77.21
2023-12-08T07:16:49.559Z,77.14
2023-12-08T07:19:35.438Z,76.84
2023-12-08T07:22:21.024Z,77.18
2023-12-08T07:25:08.421Z,76.66
2023-12-08T07:27:53.842Z,76.63
2023-12-08T07:30:39.428Z,77.01
2023-12-08T07:33:25.351Z,76.95
2023-12-08T07:36:10.955Z,76.89
2023-12-08T07:38:57.255Z,77.19
2023-12-08T07:41:46.437Z,77.26
2023-12-08T07:44:32.212Z,76.83
2023-12-08T07:47:19.909Z,77.07
2023-12-08T07:50:07.004Z,77.06
2023-12-08T07:52:53.329Z,77.34
2023-12-08T07:55:39.365Z,77.45
2023-12-08T07:58:24.934Z,77.37
2023-12-08T08:01:10.559Z,77.61
2023-12-08T08:03:56.434Z,77.78
2023-12-08T08:06:45.061Z,77.45
2023-12-08T08:09:30.674Z,77.57
2023-12-08T08:12:16.572Z,77.74
2023-12-08T08:15:02.180Z,77.76
2023-12-08T08:17:47.522Z,77.80
2023-12-08T08:20:32.904Z,77.82
2023-12-08T08:23:18.423Z,77.67
2023-12-08T08:26:04.449Z,77.53
2023-12-08T08:28:50.465Z,77.48
2023-12-08T08:31:35.899Z,77.20
2023-12-08T08:34:21.658Z,77.30
2023-12-08T08:37:07.627Z,77.21
2023-12-08T08:39:53.710Z,77.49
2023-12-08T08:42:39.486Z,77.63
2023-12-08T08:45:26.919Z,77.78
2023-12-08T08:48:12.740Z,78.13
2023-12-08T08:50:58.511Z,78.44
2023-12-08T08:53:44.006Z,78.15
2023-12-08T08:56:29.515Z,77.93
2023-12-08T08:59:14.912Z,77.36
2023-12-08T09:02:00.633Z,77.41
2023-12-08T09:04:46.528Z,77.48
2023-12-08T09:07:34.281Z,78.04
2023-12-08T09:10:20.484Z,77.91
2023-12-08T09:13:06.226Z,78.09
2023-12-08T09:15:52.752Z,78.11
2023-12-08T09:18:38.408Z,77.80
2023-12-08T09:21:23.654Z,77.10
2023-12-08T09:24:10.405Z,77.13
2023-12-08T09:26:56.122Z,77.30
2023-12-08T09:29:41.636Z,77.50
2023-12-08T09:32:28.699Z,77.35
2023-12-08T09:35:14.601Z,77.34
2023-12-08T09:38:00.489Z,77.54
2023-12-08T09:40:46.855Z,77.50
2023-12-08T09:43:33.089Z,77.38
2023-12-08T09:46:19.687Z,77.47
2023-12-08T09:49:13.339Z,77.45
2023-12-08T09:51:59.888Z,77.34
2023-12-08T09:54:45.783Z,77.54
2023-12-08T09:57:33.438Z,77.12
2023-12-08T10:00:21.508Z,77.04
2023-12-08T10:03:08.470Z,76.82
2023-12-08T10:05:56.647Z,77.00
2023-12-08T10:08:42.598Z,76.95
2023-12-08T10:11:28.051Z,76.84
2023-12-08T10:14:15.427Z,76.97
2023-12-08T10:17:02.201Z,76.92
2023-12-08T10:19:48.238Z,76.63
2023-12-08T10:22:57.956Z,76.77
2023-12-08T10:25:44.183Z,77.19
2023-12-08T10:28:29.688Z,76.81
2023-12-08T10:31:15.262Z,76.78
2023-12-08T10:34:00.858Z,76.66
2023-12-08T10:36:46.592Z,76.44
2023-12-08T10:39:32.196Z,76.43
2023-12-08T10:42:17.763Z,76.44
2023-12-08T10:45:07.222Z,76.12
2023-12-08T10:47:53.844Z,76.07
2023-12-08T10:50:40.270Z,76.47
2023-12-08T10:53:26.636Z,76.47
2023-12-08T10:56:16.902Z,76.64
2023-12-08T10:59:07.645Z,76.79
2023-12-08T11:01:55.874Z,76.69
2023-12-08T11:04:43.805Z,76.39
2023-12-08T11:07:34.211Z,76.59
2023-12-08T11:10:19.827Z,76.53
2023-12-08T11:13:10.136Z,76.67
2023-12-08T11:16:28.435Z,76.61
2023-12-08T11:19:15.582Z,76.48
2023-12-08T11:22:01.273Z,76.26
2023-12-08T11:24:47.348Z,76.47
2023-12-08T11:27:44.385Z,76.47
2023-12-08T11:30:39.987Z,76.47
2023-12-08T11:33:48.933Z,76.14
2023-12-08T11:36:34.538Z,76.23
2023-12-08T11:39:38.420Z,76.04
2023-12-08T11:42:24.108Z,75.80
2023-12-08T11:45:14.775Z,76.16
2023-12-08T11:48:12.391Z,76.06
2023-12-08T11:51:05.059Z,75.52
2023-12-08T11:53:57.117Z,75.97
2023-12-08T11:56:44.753Z,75.77
2023-12-08T11:59:30.233Z,75.83
2023-12-08T12:02:15.774Z,75.95
2023-12-08T12:05:01.969Z,75.93
2023-12-08T12:07:50.960Z,75.19
2023-12-08T12:10:38.628Z,75.36
2023-12-08T12:13:28.655Z,75.18
2023-12-08T12:16:14.403Z,75.50
2023-12-08T12:19:00.228Z,75.61
2023-12-08T12:21:46.220Z,74.99
2023-12-08T12:24:32.317Z,75.36
2023-12-08T12:27:18.182Z,75.32
2023-12-08T12:30:05.076Z,75.39
2023-12-08T12:32:50.762Z,75.33
2023-12-08T12:35:37.955Z,75.29
2023-12-08T12:38:29.032Z,75.15
2023-12-08T12:41:25.173Z,74.81
2023-12-08T12:44:10.842Z,74.85
2023-12-08T12:46:56.271Z,74.45
2023-12-08T12:49:43.983Z,74.58
2023-12-08T12:52:31.836Z,74.63
2023-12-08T12:55:24.923Z,74.22
2023-12-08T12:58:25.143Z,74.53
2023-12-08T13:01:12.904Z,74.60
2023-12-08T13:03:59.691Z,74.92
2023-12-08T13:06:45.264Z,74.88
2023-12-08T13:09:30.785Z,74.52
2023-12-08T13:12:16.172Z,74.50
2023-12-08T13:15:05.811Z,74.79
2023-12-08T13:17:52.790Z,74.96
2023-12-08T13:20:42.108Z,74.70
2023-12-08T13:23:28.080Z,74.69
2023-12-08T13:26:13.550Z,74.56
2023-12-08T13:28:59.063Z,74.36
2023-12-08T13:31:44.905Z,74.43
2023-12-08T13:34:30.515Z,74.76
2023-12-08T13:37:15.925Z,74.49
2023-12-08T13:40:01.516Z,74.50
2023-12-08T13:42:47.309Z,74.48
2023-12-08T13:45:33.686Z,74.39
2023-12-08T13:48:22.042Z,74.79
2023-12-08T13:53:59.525Z,74.48
2023-12-08T13:56:45.243Z,74.23
2023-12-08T13:59:30.585Z,73.95
2023-12-08T14:02:16.356Z,74.31
2023-12-08T14:05:02.154Z,73.85
2023-12-08T14:07:49.308Z,74.14
2023-12-08T14:10:34.812Z,73.95
2023-12-08T14:13:20.275Z,74.06
2023-12-08T14:16:06.056Z,74.23
2023-12-08T14:18:51.961Z,74.35
2023-12-08T14:21:37.855Z,74.32
2023-12-08T14:24:24.194Z,74.71
2023-12-08T14:27:09.850Z,75.05
2023-12-08T14:29:55.129Z,74.69
2023-12-08T14:32:41.806Z,74.96
2023-12-08T14:35:31.022Z,74.67
2023-12-08T14:38:19.485Z,74.61
2023-12-08T14:41:04.983Z,75.13
2023-12-08T14:43:50.621Z,74.69
2023-12-08T14:46:36.268Z,74.51
2023-12-08T14:49:22.287Z,74.45
2023-12-08T14:52:08.303Z,74.78
2023-12-08T14:54:54.152Z,74.98
2023-12-08T14:57:40.859Z,74.77
2023-12-08T15:00:26.362Z,75.02
2023-12-08T15:03:11.844Z,75.04
2023-12-08T15:06:00.549Z,74.86
2023-12-08T15:08:46.502Z,74.94
2023-12-08T15:11:32.315Z,75.24
2023-12-08T15:14:18.147Z,75.04
2023-12-08T15:17:03.841Z,74.98
2023-12-08T15:19:49.716Z,74.99
2023-12-08T15:22:37.785Z,75.05
2023-12-08T15:25:25.857Z,75.18
2023-12-08T15:28:13.041Z,75.63
2023-12-08T15:30:58.924Z,75.32
2023-12-08T15:33:44.819Z,75.16
2023-12-08T15:36:30.894Z,75.35
2023-12-08T15:39:16.803Z,75.42
2023-12-08T15:42:02.864Z,75.64
2023-12-08T15:44:48.723Z,75.61
2023-12-08T15:47:34.632Z,75.60
2023-12-08T15:50:20.701Z,75.52
2023-12-08T15:53:06.280Z,75.79
2023-12-08T15:55:53.212Z,75.92
2023-12-08T15:58:42.036Z,75.78
2023-12-08T16:01:27.658Z,75.67
2023-12-08T16:04:13.183Z,75.58
2023-12-08T16:07:00.770Z,75.63
2023-12-08T16:09:46.615Z,75.86
2023-12-08T16:12:32.371Z,76.04
2023-12-08T16:15:18.222Z,76.50
2023-12-08T16:18:04.126Z,75.80
2023-12-08T16:20:49.689Z,76.13
2023-12-08T16:23:35.097Z,76.05
2023-12-08T16:26:21.299Z,76.13
2023-12-08T16:29:07.628Z,76.40
2023-12-08T16:31:53.198Z,76.69
2023-12-08T16:34:38.612Z,76.60
2023-12-08T16:37:24.266Z,76.47
2023-12-08T16:40:13.103Z,76.58
2023-12-08T16:42:58.552Z,76.66
2023-12-08T16:45:44.354Z,76.99
2023-12-08T16:48:30.299Z,77.07
2023-12-08T16:51:16.392Z,76.65
2023-12-08T16:54:03.345Z,76.88
2023-12-08T16:56:49.045Z,76.75
2023-12-08T16:59:34.935Z,76.66
2023-12-08T17:02:20.277Z,76.71
2023-12-08T17:05:08.165Z,76.74
2023-12-08T17:07:53.767Z,76.87
2023-12-08T17:10:39.223Z,76.71
2023-12-08T17:13:24.783Z,76.83
2023-12-08T17:16:10.384Z,76.82
2023-12-08T17:18:55.950Z,77.18
2023-12-08T17:21:41.683Z,77.31
2023-12-08T17:24:27.816Z,77.12
2023-12-08T17:27:13.360Z,76.92
2023-12-08T17:29:58.982Z,76.92
2023-12-08T17:32:44.762Z,77.23
2023-12-08T17:35:30.703Z,77.14
2023-12-08T17:38:17.061Z,77.42
2023-12-08T17:41:03.301Z,77.39
2023-12-08T17:43:48.830Z,77.02
2023-12-08T17:46:34.441Z,77.37
2023-12-08T17:49:20.162Z,77.19
2023-12-08T17:52:05.983Z,77.55
2023-12-08T17:54:53.280Z,77.36
2023-12-08T17:57:40.694Z,77.00
2023-12-08T18:00:26.495Z,77.52
2023-12-08T18:03:12.046Z,76.95
2023-12-08T18:05:57.911Z,77.15
2023-12-08T18:08:43.753Z,77.47
2023-12-08T18:11:29.379Z,77.40
2023-12-08T18:14:15.086Z,77.58
2023-12-08T18:17:02.043Z,77.75
2023-12-08T18:19:47.724Z,77.35
2023-12-08T18:22:34.920Z,77.44
2023-12-08T18:25:20.480Z,77.63
2023-12-08T18:28:26.883Z,77.18
2023-12-08T18:31:29.065Z,78.08
2023-12-08T18:34:14.974Z,77.80
2023-12-08T18:37:00.520Z,77.68
2023-12-08T18:39:46.237Z,78.05
2023-12-08T18:42:32.006Z,78.24
2023-12-08T18:45:17.844Z,77.99
2023-12-08T18:48:03.613Z,78.14
2023-12-08T18:50:49.311Z,78.02
2023-12-08T18:53:36.792Z,77.86
2023-12-08T18:56:22.402Z,78.29
2023-12-08T18:59:07.950Z,78.15
2023-12-08T19:01:53.532Z,78.19
2023-12-08T19:04:39.105Z,78.31
2023-12-08T19:07:24.806Z,78.49
2023-12-08T19:10:10.713Z,78.18
2023-12-08T19:12:56.695Z,78.29
2023-12-08T19:15:42.370Z,78.55
2023-12-08T19:18:28.265Z,78.77
2023-12-08T19:21:13.971Z,78.17
2023-12-08T19:23:59.763Z,78.21
2023-12-08T19:26:45.426Z,78.68
2023-12-08T19:29:31.613Z,78.33
2023-12-08T19:32:17.463Z,78.33
2023-12-08T19:35:03.896Z,78.51
2023-12-08T19:37:50.023Z,78.48
2023-12-08T19:40:35.499Z,78.69
2023-12-08T19:43:20.923Z,78.83
2023-12-08T19:46:06.934Z,78.46
2023-12-08T19:48:52.606Z,78.54
2023-12-08T19:51:38.518Z,78.53
2023-12-08T19:54:24.225Z,78.30
2023-12-08T19:57:10.713Z,78.81
2023-12-08T19:59:57.275Z,78.69
2023-12-08T20:02:43.011Z,78.69
2023-12-08T20:05:28.789Z,78.74
2023-12-08T20:08:14.883Z,78.85
2023-12-08T20:11:02.168Z,78.65
2023-12-08T20:13:48.137Z,78.41
2023-12-08T20:16:36.073Z,78.69
2023-12-08T20:19:22.560Z,78.74
2023-12-08T20:22:08.026Z,78.56
2023-12-08T20:24:53.498Z,78.54
2023-12-08T20:27:39.348Z,78.91
2023-12-08T20:30:25.089Z,79.06
2023-12-08T20:33:12.752Z,78.90
2023-12-08T20:35:58.717Z,79.05
2023-12-08T20:38:44.331Z,78.76
2023-12-08T20:41:30.270Z,78.84
2023-12-08T20:44:18.197Z,79.15
2023-12-08T20:47:03.541Z,79.33
2023-12-08T20:49:49.752Z,78.66
2023-12-08T20:52:35.714Z,78.51
2023-12-08T20:55:21.207Z,79.17
2023-12-08T20:58:06.896Z,78.99
2023-12-08T21:00:52.598Z,78.98
2023-12-08T21:03:38.617Z,78.99
2023-12-08T21:06:24.131Z,79.05
2023-12-08T21:09:14.467Z,78.93
2023-12-08T21:12:00.396Z,78.97
2023-12-08T21:14:45.979Z,79.15
2023-12-08T21:17:31.641Z,79.05
2023-12-08T21:20:17.220Z,79.29
2023-12-08T21:23:03.642Z,78.91
2023-12-08T21:25:49.208Z,78.99
2023-12-08T21:28:34.988Z,79.23
2023-12-08T21:31:20.345Z,79.34
2023-12-08T21:34:05.900Z,79.19
2023-12-08T21:36:51.406Z,79.36
2023-12-08T21:39:36.892Z,79.01
2023-12-08T21:42:23.228Z,79.45
2023-12-08T21:45:09.114Z,79.29
2023-12-08T21:47:54.942Z,79.29
2023-12-08T21:50:40.875Z,79.59
2023-12-08T21:53:26.444Z,79.49
2023-12-08T21:56:11.987Z,79.14
2023-12-08T21:58:57.423Z,79.23
2023-12-08T22:01:45.859Z,79.43
2023-12-08T22:04:31.317Z,79.33
2023-12-08T22:07:17.445Z,79.67
2023-12-08T22:10:03.803Z,79.37
2023-12-08T22:12:49.278Z,79.56
2023-12-08T22:15:34.588Z,79.22
2023-12-08T22:18:20.018Z,79.34
2023-12-08T22:21:05.740Z,79.52
2023-12-08T22:23:51.612Z,79.53
2023-12-08T22:26:37.278Z,79.19
2023-12-08T22:29:22.933Z,79.45
2023-12-08T22:32:10.109Z,79.40
2023-12-08T22:34:55.826Z,79.57
2023-12-08T22:37:41.209Z,79.65
2023-12-08T22:40:28.517Z,79.75
2023-12-08T22:43:14.329Z,79.44
2023-12-08T22:45:59.784Z,79.57
2023-12-08T22:48:45.432Z,79.49
2023-12-08T22:51:42.873Z,80.09
2023-12-08T22:54:34.235Z,79.58
2023-12-08T22:57:19.833Z,79.65
2023-12-08T23:00:08.041Z,79.84
2023-12-08T23:02:54.577Z,79.50
2023-12-08T23:05:40.570Z,79.79
2023-12-08T23:08:26.218Z,79.80
2023-12-08T23:11:11.757Z,79.94
2023-12-08T23:13:57.189Z,79.83
2023-12-08T23:16:43.021Z,79.66
2023-12-08T23:19:28.747Z,79.88
2023-12-08T23:22:14.337Z,79.75
2023-12-08T23:24:59.843Z,80.12
2023-12-08T23:27:45.290Z,79.72
2023-12-08T23:30:30.736Z,79.68
2023-12-08T23:33:16.340Z,79.94
2023-12-08T23:36:01.904Z,80.16
2023-12-08T23:38:48.619Z,80.33
2023-12-08T23:41:34.649Z,79.86
2023-12-08T23:44:21.259Z,80.14
2023-12-08T23:47:06.869Z,80.08
2023-12-08T23:49:52.375Z,80.37
2023-12-08T23:52:38.103Z,79.92
2023-12-08T23:55:23.511Z,79.81
2023-12-08T23:58:08.779Z,79.89
